Time;durP1;ratioP1;P1;durP2;ratioP2;P2;SDS_P1;SDS_P2;PMS_P1;PMS_P2;Temp;Humidity;BMP_temperature;BMP_pressure;BME280_temperature;BME280_humidity;BME280_pressure;Samples;Min_cycle;Max_cycle;Signal;HPM_P1;HPM_P2
2021/04/14 00:02:20;;;;;;;6.72;4.68;;;;;;;7.74;36.37;71414.53;5034020;28;20056;-84
2021/04/14 00:04:47;;;;;;;9.82;4.43;;;;;;;7.28;36.76;71363.78;5028669;28;20493;-83
2021/04/14 00:07:15;;;;;;;6.35;4.10;;;;;;;7.81;36.67;71425.59;5048918;28;20021;-85
2021/04/14 00:09:43;;;;;;;9.32;5.25;;;;;;;7.34;37.04;71368.78;5034257;28;20095;-87
2021/04/14 00:12:11;;;;;;;5.47;4.97;;;;;;;7.15;36.93;71344.06;5034201;28;20043;-85
2021/04/14 00:14:38;;;;;;;12.27;5.43;;;;;;;7.99;36.37;71445.81;5033485;28;20394;-84
2021/04/14 00:17:06;;;;;;;7.15;4.30;;;;;;;7.11;37.41;71344.78;5033344;28;20037;-85
2021/04/14 00:19:33;;;;;;;4.82;4.30;;;;;;;7.10;37.75;71343.59;5063421;28;20152;-84
2021/04/14 00:22:01;;;;;;;6.70;4.75;;;;;;;7.63;35.93;71398.72;5033081;28;20474;-84
2021/04/14 00:24:28;;;;;;;9.32;4.50;;;;;;;8.40;35.98;71492.19;5033259;28;20637;-82
2021/04/14 00:26:55;;;;;;;4.95;4.07;;;;;;;7.25;36.88;71361.41;5015785;28;20107;-84
2021/04/14 00:29:22;;;;;;;7.15;4.90;;;;;;;7.69;37.74;71411.34;5031595;28;20070;-84
2021/04/14 00:31:48;;;;;;;6.95;4.32;;;;;;;7.22;39.35;71357.84;5031612;28;20022;-85
2021/04/14 00:34:19;;;;;;;8.05;4.90;;;;;;;7.64;39.56;71399.91;5024573;28;20060;-81
2021/04/14 00:36:48;;;;;;;7.97;4.93;;;;;;;7.88;39.42;71432.72;5033557;28;20433;-84
2021/04/14 00:39:18;;;;;;;8.65;4.20;;;;;;;7.96;40.41;71441.66;5047755;28;20028;-84
2021/04/14 00:41:45;;;;;;;;;;;;;;;8.59;40.76;71511.47;5033482;28;20029;-84
2021/04/14 00:44:14;;;;;;;9.45;5.35;;;;;;;8.06;38.28;71450.78;5033787;28;19958;-84
2021/04/14 00:46:41;;;;;;;6.88;5.32;;;;;;;7.65;39.32;71404.44;5050587;28;20082;-85
2021/04/14 00:49:07;;;;;;;6.38;5.22;;;;;;;8.08;38.25;71456.50;5020983;28;20052;-83
2021/04/14 00:51:35;;;;;;;8.70;6.00;;;;;;;8.62;37.89;71518.38;5032855;28;20033;-84
2021/04/14 00:54:02;;;;;;;9.75;5.00;;;;;;;8.53;38.35;71507.66;5042079;28;20386;-87
2021/04/14 00:56:29;;;;;;;7.60;4.97;;;;;;;8.57;38.73;71512.41;5048731;28;20458;-85
2021/04/14 00:58:56;;;;;;;7.07;4.53;;;;;;;7.57;38.15;71394.31;5058747;28;20176;-85
2021/04/14 01:01:23;;;;;;;7.18;5.68;;;;;;;8.17;37.53;71463.28;5051576;28;20063;-83
2021/04/14 01:03:52;;;;;;;16.13;4.97;;;;;;;8.26;38.83;71473.41;5051057;28;20025;-85
2021/04/14 01:06:23;;;;;;;6.68;5.75;;;;;;;8.48;37.15;71498.97;5016473;28;20086;-85
2021/04/14 01:08:50;;;;;;;4.50;4.07;;;;;;;9.07;37.00;71569.53;5012472;28;20029;-84
2021/04/14 01:11:17;;;;;;;9.07;5.05;;;;;;;8.40;37.02;71492.19;5041573;28;20463;-85
2021/04/14 01:13:45;;;;;;;8.82;4.75;;;;;;;7.48;36.71;71387.56;5034722;28;20860;-84
2021/04/14 01:16:12;;;;;;;6.20;4.75;;;;;;;8.98;39.33;71558.81;5032611;28;20033;-84
2021/04/14 01:18:40;;;;;;;6.32;4.78;;;;;;;9.22;39.66;71586.78;5050521;28;20486;-85
2021/04/14 01:21:10;;;;;;;7.35;4.95;;;;;;;7.96;38.77;71439.50;5049556;28;20033;-85
2021/04/14 01:23:37;;;;;;;;;;;;;;;9.42;39.25;71610.00;5051347;28;20048;-83
2021/04/14 01:26:05;;;;;;;7.95;5.82;;;;;;;8.90;38.73;71547.75;5051169;28;19913;-84
2021/04/14 01:28:35;;;;;;;10.25;6.32;;;;;;;9.48;38.00;71615.94;5054488;28;20033;-83
2021/04/14 01:31:04;;;;;;;9.25;5.60;;;;;;;9.45;38.92;71610.22;5055109;28;20020;-84
2021/04/14 01:33:32;;;;;;;11.55;5.65;;;;;;;8.18;39.61;71464.47;5042236;28;20033;-84
2021/04/14 01:36:01;;;;;;;15.32;5.97;;;;;;;7.52;40.22;71392.31;5035940;28;20495;-85
2021/04/14 01:38:29;;;;;;;7.53;5.63;;;;;;;7.17;40.30;71349.19;5018286;28;20045;-84
2021/04/14 01:40:57;;;;;;;6.57;5.07;;;;;;;8.10;40.51;71457.69;5043403;28;20074;-83
2021/04/14 01:43:23;;;;;;;6.85;5.05;;;;;;;8.05;39.39;71452.94;5048217;28;20032;-85
2021/04/14 01:45:50;;;;;;;6.80;5.38;;;;;;;7.70;40.34;71409.19;5050700;28;20033;-85
2021/04/14 01:48:19;;;;;;;9.25;6.47;;;;;;;8.17;40.13;71466.03;5050635;28;20013;-85
2021/04/14 01:50:46;;;;;;;8.77;5.10;;;;;;;7.69;39.65;71410.72;5044107;28;20029;-84
2021/04/14 01:53:15;;;;;;;5.85;5.25;;;;;;;8.28;40.17;71478.50;5038274;28;20031;-84
2021/04/14 01:55:43;;;;;;;8.30;5.22;;;;;;;7.50;38.54;71381.72;5023723;28;20132;-85
2021/04/14 01:58:12;;;;;;;14.23;5.25;;;;;;;7.34;39.39;71365.44;5050989;28;20075;-85
2021/04/14 02:00:45;;;;;;;8.60;5.10;;;;;;;8.51;39.21;71505.28;5050346;28;20061;-83
2021/04/14 02:03:13;;;;;;;8.55;5.63;;;;;;;6.89;39.71;71319.81;5050425;28;20478;-84
2021/04/14 02:05:40;;;;;;;7.72;6.45;;;;;;;8.19;40.04;71468.38;5049039;28;20120;-85
2021/04/14 02:08:08;;;;;;;7.68;6.05;;;;;;;8.56;39.64;71508.50;5050281;28;20822;-83
2021/04/14 02:10:35;;;;;;;9.25;6.22;;;;;;;7.45;39.49;71384.00;5032186;28;20082;-84
2021/04/14 02:13:10;;;;;;;9.23;5.95;;;;;;;7.25;39.42;71361.41;5049813;28;20056;-85
2021/04/14 02:15:37;;;;;;;9.43;5.68;;;;;;;7.25;38.57;71361.41;5032265;28;20032;-84
2021/04/14 02:18:05;;;;;;;6.65;5.00;;;;;;;7.12;38.99;71345.97;5032090;28;20557;-84
2021/04/14 02:20:51;;;;;;;8.52;5.13;;;;;;;8.29;40.97;71479.69;5049550;28;20422;-85
2021/04/14 02:23:23;;;;;;;5.63;4.88;;;;;;;8.72;41.98;71529.69;5048543;28;20041;-85
2021/04/14 02:25:50;;;;;;;5.55;5.00;;;;;;;8.25;41.89;71475.53;5036679;28;20064;-85
2021/04/14 02:28:17;;;;;;;7.78;5.38;;;;;;;7.16;41.34;71350.72;5049922;28;20021;-86
2021/04/14 02:30:44;;;;;;;9.25;4.72;;;;;;;7.86;41.92;71430.97;5048786;28;20277;-85
2021/04/14 02:33:11;;;;;;;8.10;5.28;;;;;;;7.52;41.20;71384.13;5043454;28;20437;-85
2021/04/14 02:35:38;;;;;;;7.70;5.70;;;;;;;8.73;39.05;71530.25;5012307;28;20061;-84
2021/04/14 02:38:06;;;;;;;6.38;4.60;;;;;;;8.32;39.44;71481.13;5012342;28;20121;-85
2021/04/14 02:40:34;;;;;;;6.93;4.28;;;;;;;8.45;41.41;71498.13;5012167;28;20064;-85
2021/04/14 02:43:01;;;;;;;7.45;6.03;;;;;;;7.67;39.68;71408.97;5031974;28;20033;-85
2021/04/14 02:45:30;;;;;;;14.27;5.15;;;;;;;8.34;41.98;71486.22;5052249;28;20027;-86
2021/04/14 02:47:58;;;;;;;10.57;4.50;;;;;;;7.43;43.69;71381.59;5033488;28;20025;-85
2021/04/14 02:50:25;;;;;;;10.82;5.88;;;;;;;8.21;43.67;71465.88;5028371;28;20040;-86
2021/04/14 02:52:54;;;;;;;8.52;5.47;;;;;;;7.72;45.09;71414.91;5025760;28;20064;-85
2021/04/14 02:55:23;;;;;;;12.73;6.63;;;;;;;9.07;45.08;71569.53;5041654;28;20041;-85
2021/04/14 02:57:50;;;;;;;11.30;6.32;;;;;;;8.14;44.89;71462.47;5053125;28;20017;-84
2021/04/14 03:00:20;;;;;;;9.80;5.22;;;;;;;8.47;44.38;71498.38;5045577;28;20425;-84
2021/04/14 03:02:47;;;;;;;12.38;6.18;;;;;;;7.87;44.45;71428.81;5039881;28;20820;-85
2021/04/14 03:05:16;;;;;;;8.35;5.80;;;;;;;8.26;44.65;71476.72;5061070;28;20039;-85
2021/04/14 03:07:43;;;;;;;10.02;6.35;;;;;;;7.88;46.06;71432.72;5035120;28;20036;-85
2021/04/14 03:10:12;;;;;;;9.70;6.78;;;;;;;7.78;45.86;71421.44;5040508;28;20025;-85
2021/04/14 03:12:40;;;;;;;10.73;6.20;;;;;;;7.36;45.37;71373.28;5031645;28;20487;-84
2021/04/14 03:15:11;;;;;;;5.90;5.22;;;;;;;7.90;45.93;71435.13;5024065;28;20525;-85
2021/04/14 03:17:37;;;;;;;7.18;5.13;;;;;;;7.59;45.80;71396.69;5054031;28;20429;-83
2021/04/14 03:20:06;;;;;;;10.40;4.63;;;;;;;7.57;45.85;71397.06;5053860;28;20120;-84
2021/04/14 03:22:35;;;;;;;7.22;5.00;;;;;;;8.64;45.14;71520.16;5052059;28;20486;-84
2021/04/14 03:25:03;;;;;;;7.07;5.95;;;;;;;8.49;44.83;71502.88;5049900;28;20041;-84
2021/04/14 03:27:29;;;;;;;9.10;5.22;;;;;;;7.04;42.54;71336.47;5029623;28;20396;-84
2021/04/14 03:29:56;;;;;;;7.35;4.35;;;;;;;7.08;43.85;71341.22;5033277;28;20021;-84
2021/04/14 03:32:23;;;;;;;14.70;5.53;;;;;;;7.13;45.12;71344.41;5036202;28;20470;-85
2021/04/14 03:34:50;;;;;;;6.63;5.30;;;;;;;7.47;44.86;71386.38;5043976;28;20493;-86
2021/04/14 03:37:17;;;;;;;8.60;6.20;;;;;;;8.30;45.80;71481.47;5035259;28;20167;-86
2021/04/14 03:39:45;;;;;;;11.70;5.15;;;;;;;7.62;40.82;71403.59;5052671;28;20034;-86
2021/04/14 03:42:12;;;;;;;8.18;5.90;;;;;;;7.40;45.04;71378.06;5034543;28;20018;-86
2021/04/14 03:44:39;;;;;;;14.82;6.22;;;;;;;8.24;47.95;71471.00;5035330;28;20032;-85
2021/04/14 03:47:06;;;;;;;10.55;7.30;;;;;;;8.00;49.03;71447.00;5033266;28;20013;-85
2021/04/14 03:49:33;;;;;;;12.90;7.63;;;;;;;7.78;49.63;71422.03;5031350;28;20028;-85
2021/04/14 03:52:01;;;;;;;12.75;6.93;;;;;;;8.00;48.23;71447.00;5046333;28;20025;-84
2021/04/14 03:54:29;;;;;;;8.60;5.43;;;;;;;7.06;44.09;71338.84;5053218;28;20021;-86
2021/04/14 03:56:56;;;;;;;8.93;5.35;;;;;;;7.38;36.74;71372.94;5052599;28;20035;-84
2021/04/14 03:59:23;;;;;;;8.73;5.63;;;;;;;7.66;40.93;71408.38;5049371;28;20163;-85
2021/04/14 04:01:50;;;;;;;11.43;6.70;;;;;;;7.13;45.43;71347.16;5053123;28;20098;-85
2021/04/14 04:04:17;;;;;;;8.10;6.47;;;;;;;7.16;43.08;71350.72;5053342;28;20029;-83
2021/04/14 04:06:43;;;;;;;6.72;6.07;;;;;;;7.45;44.93;71384.00;5052798;28;20029;-86
2021/04/14 04:09:10;;;;;;;9.63;6.57;;;;;;;7.07;46.62;71340.03;5034855;28;20024;-86
2021/04/14 04:11:37;;;;;;;11.35;6.78;;;;;;;7.98;46.75;71441.28;5052356;28;20390;-84
2021/04/14 04:14:04;;;;;;;11.70;6.57;;;;;;;7.46;46.73;71384.59;5052335;28;20071;-85
2021/04/14 04:16:31;;;;;;;12.95;8.02;;;;;;;7.72;47.70;71414.31;5033568;28;20037;-84
2021/04/14 04:18:58;;;;;;;11.93;7.93;;;;;;;7.40;47.91;71378.06;5051218;28;20063;-85
2021/04/14 04:21:25;;;;;;;14.63;7.55;;;;;;;8.41;49.10;71493.38;5033757;28;20036;-84
2021/04/14 04:23:52;;;;;;;9.95;7.32;;;;;;;8.11;49.09;71459.47;5051650;28;20094;-86
2021/04/14 04:26:20;;;;;;;12.90;7.65;;;;;;;7.14;49.42;71347.75;5033924;28;20033;-84
2021/04/14 04:28:47;;;;;;;12.88;7.85;;;;;;;8.20;50.03;71469.59;5034440;28;20044;-85
2021/04/14 04:31:14;;;;;;;12.10;7.65;;;;;;;7.77;50.05;71414.75;5034127;28;20135;-86
2021/04/14 04:33:40;;;;;;;12.65;7.72;;;;;;;8.55;50.68;71510.03;5033951;28;20052;-85
2021/04/14 04:36:08;;;;;;;9.65;8.23;;;;;;;7.40;51.30;71378.06;5051448;28;20573;-85
2021/04/14 04:38:35;;;;;;;10.25;8.15;;;;;;;7.86;50.71;71430.34;5033580;28;20033;-85
2021/04/14 04:41:03;;;;;;;11.57;7.10;;;;;;;8.27;50.51;71475.16;5033359;28;20029;-86
2021/04/14 04:43:30;;;;;;;16.92;8.55;;;;;;;8.03;50.49;71445.09;5050569;28;20032;-85
2021/04/14 04:45:58;;;;;;;13.85;8.15;;;;;;;7.43;49.73;71378.28;5039830;28;20090;-86
2021/04/14 04:48:25;;;;;;;17.30;9.02;;;;;;;7.15;50.31;71348.94;5047148;28;20391;-85
2021/04/14 04:50:52;;;;;;;7.15;6.15;;;;;;;8.41;50.11;71493.97;5024619;28;20411;-84
2021/04/14 04:53:22;;;;;;;12.98;7.95;;;;;;;8.08;50.04;71455.91;5027406;28;20504;-84
2021/04/14 04:55:50;;;;;;;19.50;7.22;;;;;;;7.87;49.35;71426.06;5026271;28;20435;-89
2021/04/14 04:58:18;;;;;;;15.38;7.72;;;;;;;8.11;48.71;71454.00;5033132;28;20037;-85
2021/04/14 05:00:46;;;;;;;14.68;7.10;;;;;;;8.83;46.84;71541.56;5033298;28;20021;-84
2021/04/14 05:03:17;;;;;;;12.25;6.47;;;;;;;9.24;45.97;71585.81;5051531;28;20029;-86
2021/04/14 05:05:43;;;;;;;11.98;6.50;;;;;;;9.06;44.50;71565.59;5032491;28;20107;-87
2021/04/14 05:08:12;;;;;;;13.60;6.65;;;;;;;9.10;46.37;71572.50;5050320;28;20029;-87
2021/04/14 05:10:39;;;;;;;10.80;7.05;;;;;;;8.67;47.54;71523.13;5033800;28;20459;-87
2021/04/14 05:13:08;;;;;;;13.23;7.32;;;;;;;8.44;47.33;71496.94;5033012;28;20036;-85
2021/04/14 05:15:40;;;;;;;11.50;7.65;;;;;;;7.58;48.58;71398.84;5054351;28;20072;-87
2021/04/14 05:18:09;;;;;;;14.38;7.30;;;;;;;8.83;48.54;71541.56;5029907;28;20083;-86
2021/04/14 05:20:36;;;;;;;9.57;6.47;;;;;;;8.35;47.44;71487.44;5033166;28;20090;-88
2021/04/14 05:23:04;;;;;;;15.85;6.60;;;;;;;8.44;47.55;71496.94;5034296;28;20029;-87
2021/04/14 05:25:33;;;;;;;8.50;6.45;;;;;;;8.77;50.35;71532.28;5033815;28;20049;-88
2021/04/14 05:28:11;;;;;;;19.98;6.85;;;;;;;8.27;50.85;71477.91;5033652;28;20037;-89
2021/04/14 05:30:39;;;;;;;13.95;7.70;;;;;;;9.00;49.57;71561.19;5042695;28;20024;-86
2021/04/14 05:33:07;;;;;;;12.93;7.05;;;;;;;7.56;50.34;71395.88;5045676;28;20029;-86
2021/04/14 05:35:35;;;;;;;16.48;6.20;;;;;;;8.39;50.70;71491.59;5041793;28;20034;-85
2021/04/14 05:38:02;;;;;;;12.80;6.93;;;;;;;7.44;50.42;71377.34;5013716;28;20032;-86
2021/04/14 05:40:29;;;;;;;20.63;7.97;;;;;;;8.18;51.51;71467.81;5021878;28;20375;-88
2021/04/14 05:42:56;;;;;;;14.02;7.55;;;;;;;8.10;52.87;71454.97;5049263;28;20462;-87
2021/04/14 05:45:29;;;;;;;14.10;7.32;;;;;;;8.84;51.77;71543.34;5031635;28;20025;-86
2021/04/14 05:47:57;;;;;;;14.15;6.75;;;;;;;7.57;52.24;71397.66;5014500;28;20147;-85
2021/04/14 05:50:26;;;;;;;13.27;7.70;;;;;;;8.96;52.68;71556.44;5015517;28;20029;-86
2021/04/14 05:52:53;;;;;;;13.13;7.55;;;;;;;9.06;50.61;71568.34;5036266;28;20556;-85
2021/04/14 05:55:21;;;;;;;12.68;6.68;;;;;;;8.61;51.07;71513.84;5033433;28;20029;-85
2021/04/14 05:57:48;;;;;;;7.80;5.75;;;;;;;8.58;51.45;71513.03;5034256;28;20033;-86
2021/04/14 06:00:17;;;;;;;12.52;6.25;;;;;;;9.22;50.82;71586.19;5033400;28;20104;-87
2021/04/14 06:02:44;;;;;;;10.32;6.28;;;;;;;8.82;50.98;71540.97;5032707;28;20082;-86
2021/04/14 06:05:14;;;;;;;17.85;6.63;;;;;;;9.60;51.14;71624.75;5023226;28;20032;-85
2021/04/14 06:07:42;;;;;;;11.65;5.38;;;;;;;8.34;48.11;71485.66;5032604;28;20033;-83
2021/04/14 06:10:10;;;;;;;8.40;4.97;;;;;;;9.21;47.81;71582.25;5032790;28;20033;-86
2021/04/14 06:12:37;;;;;;;8.52;5.40;;;;;;;9.13;47.45;71576.69;5029232;28;20017;-82
2021/04/14 06:15:10;;;;;;;15.23;4.95;;;;;;;9.68;47.11;71639.16;5045827;28;20124;-84
2021/04/14 06:17:37;;;;;;;10.98;4.80;;;;;;;9.31;47.02;71596.91;5041650;28;20064;-85
2021/04/14 06:20:06;;;;;;;12.43;5.53;;;;;;;8.29;46.41;71480.28;5034649;28;20033;-84
2021/04/14 06:22:34;;;;;;;7.90;5.18;;;;;;;8.25;47.02;71474.94;5023406;28;20079;-85
2021/04/14 06:25:01;;;;;;;13.48;5.43;;;;;;;7.66;46.15;71405.03;5049397;28;20040;-86
2021/04/14 06:27:36;;;;;;;9.57;5.15;;;;;;;7.82;45.47;71426.19;5042161;28;20033;-82
2021/04/14 06:30:05;;;;;;;11.63;5.50;;;;;;;9.40;46.30;71607.03;5039090;28;20013;-87
2021/04/14 06:32:32;;;;;;;13.70;5.30;;;;;;;9.03;46.33;71564.75;5035605;28;20026;-85
2021/04/14 06:34:59;;;;;;;11.02;5.43;;;;;;;8.47;46.47;71500.50;5018307;28;20022;-86
2021/04/14 06:37:26;;;;;;;9.77;5.55;;;;;;;7.90;45.27;71435.13;5021247;28;20021;-86
2021/04/14 06:40:21;;;;;;;11.02;7.45;;;;;;;8.54;46.69;71506.13;5052026;28;20032;-86
2021/04/14 06:42:56;;;;;;;9.63;5.55;;;;;;;9.60;46.92;71627.50;5038077;28;20108;-84
2021/04/14 06:45:35;;;;;;;15.88;6.38;;;;;;;9.60;47.42;71630.22;5015977;28;20033;-82
2021/04/14 06:48:36;;;;;;;10.93;5.40;;;;;;;9.26;47.43;71585.47;5015328;28;20138;-83
2021/04/14 06:51:15;;;;;;;9.00;5.13;;;;;;;8.17;48.07;71466.03;5034168;28;20060;-86
2021/04/14 06:54:09;;;;;;;9.52;4.63;;;;;;;9.12;47.59;71572.75;5030246;28;20029;-85
2021/04/14 06:56:40;;;;;;;13.80;6.28;;;;;;;9.10;46.65;71567.59;5046627;28;20036;-86
2021/04/14 06:59:19;;;;;;;15.38;5.78;;;;;;;8.49;47.18;71503.47;5023600;28;20031;-83
2021/04/14 07:01:53;;;;;;;12.05;5.65;;;;;;;8.71;46.73;71525.75;5034128;28;20046;-84
2021/04/14 07:04:29;;;;;;;17.33;6.43;;;;;;;8.79;47.40;71534.66;5054125;28;20029;-83
2021/04/14 07:06:56;;;;;;;9.63;5.38;;;;;;;8.75;48.14;71530.50;5044960;28;20078;-85
2021/04/14 07:09:42;;;;;;;13.27;6.30;;;;;;;9.15;48.43;71573.56;5037023;28;20049;-89
2021/04/14 07:12:20;;;;;;;10.43;6.00;;;;;;;9.18;49.07;71582.59;5032421;28;20025;-87
2021/04/14 07:14:49;;;;;;;15.68;5.90;;;;;;;8.68;47.66;71522.16;5035106;28;20447;-85
2021/04/14 07:17:34;;;;;;;26.02;5.70;;;;;;;8.99;49.70;71560.59;5035368;28;20098;-84
2021/04/14 07:20:20;;;;;;;9.90;5.57;;;;;;;8.79;49.73;71534.66;5041677;28;20047;-86
2021/04/14 07:23:16;;;;;;;12.88;5.55;;;;;;;9.10;50.11;71572.50;5048131;28;20099;-86
2021/04/14 07:26:32;;;;;;;9.18;5.15;;;;;;;8.49;50.92;71500.75;5051771;28;20059;-86
2021/04/14 07:29:38;;;;;;;16.55;5.30;;;;;;;8.80;50.66;71533.09;4952662;28;20035;-87
2021/04/14 07:32:33;;;;;;;11.23;5.72;;;;;;;8.08;52.00;71453.78;4995776;28;20033;-85
2021/04/14 07:35:25;;;;;;;12.75;5.38;;;;;;;9.25;51.88;71589.75;5042564;28;20135;-87
2021/04/14 07:38:10;;;;;;;14.95;5.65;;;;;;;8.99;52.48;71557.28;5047648;28;20025;-88
2021/04/14 07:41:01;;;;;;;8.93;4.65;;;;;;;8.93;53.34;71553.47;5055052;28;20025;-85
2021/04/14 07:43:58;;;;;;;14.23;6.57;;;;;;;8.73;54.04;71530.25;5032014;28;20419;-86
2021/04/14 07:46:26;;;;;;;13.73;7.32;;;;;;;7.61;54.27;71402.41;5037350;28;20457;-86
2021/04/14 07:48:56;;;;;;;12.55;5.50;;;;;;;8.65;53.67;71518.00;5039652;28;20075;-86
2021/04/14 07:51:23;;;;;;;;;;;;;;;9.36;54.33;71599.50;5055578;28;20028;-84
2021/04/14 07:54:13;;;;;;;14.30;5.80;;;;;;;8.89;54.95;71549.31;5054775;28;19996;-88
2021/04/14 07:56:43;;;;;;;;;;;;;;;9.09;55.04;71569.16;5039012;28;20040;-86
2021/04/14 07:59:15;;;;;;;13.77;6.70;;;;;;;7.93;55.47;71438.69;5052331;28;19924;-88
2021/04/14 08:02:02;;;;;;;16.52;6.35;;;;;;;9.06;55.62;71568.34;5058789;28;20047;-87
2021/04/14 08:04:41;;;;;;;11.77;5.82;;;;;;;8.11;56.00;71458.88;5043983;28;20028;-85
2021/04/14 08:07:14;;;;;;;13.48;7.13;;;;;;;8.91;56.97;71545.59;5048767;28;20025;-88
2021/04/14 08:09:59;;;;;;;15.25;7.57;;;;;;;9.18;56.73;71582.59;5039869;28;20045;-87
2021/04/14 08:13:00;;;;;;;20.52;8.38;;;;;;;9.08;57.31;71570.72;5034156;28;20055;-87
2021/04/14 08:15:42;;;;;;;18.73;7.55;;;;;;;8.96;57.92;71554.28;5028812;28;20048;-86
2021/04/14 08:18:18;;;;;;;12.70;6.95;;;;;;;9.06;58.10;71567.75;5050955;28;20124;-86
2021/04/14 08:21:02;;;;;;;17.83;7.90;;;;;;;7.94;57.69;71439.84;5055506;28;20021;-87
2021/04/14 08:23:31;;;;;;;13.30;7.07;;;;;;;8.80;58.61;71538.59;5033835;28;20548;-86
2021/04/14 08:26:00;;;;;;;17.85;7.97;;;;;;;8.08;59.04;71456.50;5009764;28;20476;-84
2021/04/14 08:28:36;;;;;;;11.43;7.77;;;;;;;9.07;59.40;71569.53;5029901;28;20030;-88
2021/04/14 08:31:22;;;;;;;11.82;7.40;;;;;;;8.61;58.35;71516.56;5004821;28;20026;-85
2021/04/14 08:33:53;;;;;;;16.60;7.70;;;;;;;8.97;58.76;71555.47;5024756;28;20121;-86
2021/04/14 08:36:35;;;;;;;10.27;8.40;;;;;;;8.84;60.43;71543.34;5010061;28;20391;-88
2021/04/14 08:39:59;;;;;;;21.38;9.32;;;;;;;9.07;59.58;71568.94;5009609;28;20373;-88
2021/04/14 08:42:32;;;;;;;14.75;8.90;;;;;;;8.85;60.77;71541.81;4988146;28;20041;-85
2021/04/14 08:45:30;;;;;;;13.98;9.55;;;;;;;9.04;60.17;71563.81;4970100;28;20481;-86
2021/04/14 08:48:00;;;;;;;13.00;8.40;;;;;;;8.76;60.99;71528.34;5011672;28;20120;-87
2021/04/14 08:50:35;;;;;;;17.05;9.75;;;;;;;8.57;62.37;71506.94;5011508;28;20049;-87
2021/04/14 08:53:12;;;;;;;18.23;9.25;;;;;;;7.44;62.10;71382.22;5005291;28;20076;-86
2021/04/14 08:55:40;;;;;;;25.75;9.60;;;;;;;7.52;61.42;71391.72;5026036;28;20034;-87
2021/04/14 08:58:08;;;;;;;13.68;8.60;;;;;;;8.51;61.99;71505.28;5021773;28;20112;-86
2021/04/14 09:00:37;;;;;;;15.65;9.10;;;;;;;8.17;62.23;71466.03;5010808;28;20088;-86
2021/04/14 09:03:10;;;;;;;18.13;9.18;;;;;;;7.43;62.54;71381.03;5011174;28;20394;-87
2021/04/14 09:05:38;;;;;;;20.17;11.40;;;;;;;7.51;62.57;71387.78;5009560;28;20041;-87
2021/04/14 09:08:12;;;;;;;12.98;10.10;;;;;;;8.63;63.01;71519.56;5010897;28;20030;-87
2021/04/14 09:11:10;;;;;;;20.20;9.20;;;;;;;8.41;63.15;71493.97;5013362;28;20116;-87
2021/04/14 09:13:43;;;;;;;16.38;9.65;;;;;;;8.32;62.19;71483.84;5017744;28;20044;-87
2021/04/14 09:16:11;;;;;;;18.35;10.57;;;;;;;8.21;63.04;71470.78;5000168;28;20034;-86
2021/04/14 09:18:45;;;;;;;16.45;10.32;;;;;;;8.44;63.63;71494.78;5003866;28;20037;-86
2021/04/14 09:21:16;;;;;;;16.17;9.88;;;;;;;8.47;64.12;71500.50;5018767;28;20029;-87
2021/04/14 09:24:06;;;;;;;15.55;10.95;;;;;;;8.47;64.92;71497.78;5033936;28;20030;-87
2021/04/14 09:26:56;;;;;;;17.50;12.25;;;;;;;8.47;65.52;71500.50;5070188;27;20450;-87
2021/04/14 09:29:35;;;;;;;19.33;12.35;;;;;;;7.93;64.14;71438.69;5040320;28;20033;-85
2021/04/14 09:32:12;;;;;;;17.75;11.90;;;;;;;8.36;64.45;71490.75;5041167;28;20796;-87
2021/04/14 09:34:41;;;;;;;14.65;10.73;;;;;;;7.27;63.51;71363.19;5046122;28;20029;-86
2021/04/14 09:37:14;;;;;;;15.77;10.80;;;;;;;8.73;63.94;71527.53;5053830;28;20064;-86
2021/04/14 09:39:49;;;;;;;17.90;11.88;;;;;;;8.62;64.24;71517.78;5057279;28;20021;-87
2021/04/14 09:42:25;;;;;;;17.48;10.63;;;;;;;8.69;64.05;71522.78;5058196;28;20026;-87
2021/04/14 09:44:56;;;;;;;14.68;10.55;;;;;;;8.74;64.16;71531.47;5050434;28;20113;-88
2021/04/14 09:47:26;;;;;;;28.58;11.13;;;;;;;8.54;64.93;71508.84;5033649;28;20026;-86
2021/04/14 09:49:56;;;;;;;28.27;12.00;;;;;;;8.55;65.03;71510.03;5035850;28;20148;-85
2021/04/14 09:52:28;;;;;;;19.15;10.25;;;;;;;8.61;64.46;71513.84;5049028;28;20079;-83
2021/04/14 09:55:14;;;;;;;18.73;11.95;;;;;;;8.69;64.38;71520.03;5047143;28;20378;-85
2021/04/14 09:57:44;;;;;;;19.55;11.05;;;;;;;8.41;65.12;71493.38;5060533;28;20021;-87
2021/04/14 10:00:21;;;;;;;20.92;12.40;;;;;;;8.13;65.70;71455.81;5054559;28;20009;-87
2021/04/14 10:02:49;;;;;;;19.75;12.20;;;;;;;7.39;66.94;71376.88;5047979;28;20033;-85
2021/04/14 10:05:17;;;;;;;19.85;11.57;;;;;;;7.12;67.06;71345.97;5044451;28;20021;-84
2021/04/14 10:07:46;;;;;;;18.40;11.63;;;;;;;8.29;67.21;71476.94;5053959;28;20036;-84
2021/04/14 10:10:20;;;;;;;19.85;11.10;;;;;;;8.13;67.37;71458.53;5047275;28;20014;-86
2021/04/14 10:12:48;;;;;;;22.85;11.68;;;;;;;7.90;66.92;71432.38;5051017;28;20036;-87
2021/04/14 10:15:16;;;;;;;23.77;14.25;;;;;;;8.27;67.50;71477.31;5050341;28;20108;-85
2021/04/14 10:17:44;;;;;;;26.52;12.48;;;;;;;8.28;67.60;71476.38;5054872;28;20032;-88
2021/04/14 10:20:25;;;;;;;16.80;12.30;;;;;;;7.71;67.79;71413.13;5051080;28;20101;-84
2021/04/14 10:22:53;;;;;;;24.70;12.38;;;;;;;8.30;68.08;71481.47;5046542;28;20040;-83
2021/04/14 10:25:29;;;;;;;20.50;12.73;;;;;;;7.56;68.43;71390.41;5029337;28;20064;-84
2021/04/14 10:28:08;;;;;;;15.27;10.85;;;;;;;7.12;69.29;71345.97;5043553;28;20029;-85
2021/04/14 10:30:38;;;;;;;23.77;13.35;;;;;;;7.14;70.07;71348.34;5044053;28;20478;-84
2021/04/14 10:33:09;;;;;;;23.20;13.95;;;;;;;7.41;70.00;71375.91;5043190;28;20033;-84
2021/04/14 10:35:36;;;;;;;28.45;13.43;;;;;;;7.01;70.16;71332.91;5045375;28;20063;-84
2021/04/14 10:38:05;;;;;;;23.63;12.48;;;;;;;8.20;69.90;71469.59;5030499;28;20096;-84
2021/04/14 10:40:44;;;;;;;24.35;11.85;;;;;;;8.14;70.62;71463.03;5041982;28;20020;-85
2021/04/14 10:43:22;;;;;;;21.63;12.45;;;;;;;8.03;70.52;71450.56;5028296;28;20129;-83
2021/04/14 10:46:07;;;;;;;21.75;12.63;;;;;;;7.94;70.20;71440.47;5031468;28;20115;-84
2021/04/14 10:48:39;;;;;;;22.75;12.90;;;;;;;7.07;70.96;71340.03;5027860;28;20521;-83
2021/04/14 10:51:43;;;;;;;21.85;11.35;;;;;;;7.92;70.50;71437.50;5030378;28;20390;-84
2021/04/14 10:54:12;;;;;;;21.42;13.13;;;;;;;6.53;71.34;71278.25;5024946;28;20125;-85
2021/04/14 10:56:40;;;;;;;22.58;12.35;;;;;;;7.32;71.10;71368.56;5025324;28;20029;-85
2021/04/14 10:59:11;;;;;;;22.90;13.45;;;;;;;7.85;71.42;71427.00;5029549;28;20029;-84
2021/04/14 11:01:41;;;;;;;26.48;12.65;;;;;;;7.69;70.90;71411.34;5031611;28;20048;-84
2021/04/14 11:04:36;;;;;;;26.52;14.52;;;;;;;8.33;70.97;71478.97;5022807;28;20087;-83
2021/04/14 11:07:16;;;;;;;25.05;14.20;;;;;;;8.20;71.20;71467.44;5029961;28;20033;-85
2021/04/14 11:09:45;;;;;;;21.13;12.45;;;;;;;8.34;71.65;71486.22;5033717;28;20116;-85
2021/04/14 11:12:15;;;;;;;28.90;12.48;;;;;;;7.43;71.79;71381.03;5036374;28;20052;-82
2021/04/14 11:14:46;;;;;;;21.17;12.13;;;;;;;7.58;72.95;71398.25;5027781;28;20101;-84
2021/04/14 11:17:32;;;;;;;19.80;12.52;;;;;;;8.13;73.66;71461.84;5020305;28;20402;-84
2021/04/14 11:20:06;;;;;;;17.38;10.90;;;;;;;8.07;73.63;71455.31;5025511;28;20045;-85
2021/04/14 11:22:48;;;;;;;26.45;14.57;;;;;;;7.93;73.82;71438.69;5025822;28;20014;-84
2021/04/14 11:25:30;;;;;;;27.50;15.00;;;;;;;7.84;74.79;71428.56;5029279;28;20044;-85
2021/04/14 11:28:05;;;;;;;28.90;13.90;;;;;;;7.09;75.29;71336.94;5032329;28;20045;-86
2021/04/14 11:30:45;;;;;;;21.85;14.60;;;;;;;6.80;75.11;71309.16;5034768;28;20095;-86
2021/04/14 11:33:13;;;;;;;19.80;13.00;;;;;;;7.64;75.50;71406.00;5049749;28;20150;-85
2021/04/14 11:35:52;;;;;;;27.95;15.20;;;;;;;7.51;76.16;71385.66;5036493;28;20026;-86
2021/04/14 11:38:37;;;;;;;25.83;13.50;;;;;;;7.58;75.66;71396.13;5025082;28;20041;-85
2021/04/14 11:41:38;;;;;;;28.88;15.13;;;;;;;7.79;75.51;71423.22;5026935;28;20041;-86
2021/04/14 11:44:26;;;;;;;26.27;14.52;;;;;;;7.63;75.70;71401.47;5019416;28;20037;-85
2021/04/14 11:47:02;;;;;;;34.63;14.63;;;;;;;7.93;75.18;71433.19;5028286;28;20080;-84
2021/04/14 11:49:36;;;;;;;22.90;12.48;;;;;;;7.36;75.97;71373.28;5025584;28;20029;-85
2021/04/14 11:52:35;;;;;;;24.80;14.90;;;;;;;7.81;75.44;71425.59;5027508;28;20071;-84
2021/04/14 11:55:14;;;;;;;29.23;14.82;;;;;;;7.73;75.74;71416.06;5044867;28;20394;-84
2021/04/14 11:57:45;;;;;;;18.80;13.77;;;;;;;6.87;76.28;71316.84;5024617;28;20026;-84
2021/04/14 12:00:21;;;;;;;28.73;15.77;;;;;;;7.85;75.66;71423.69;5025956;28;20064;-84